createdAt,value
2023-02-21T00:08:10.919Z,2.40
2023-02-21T00:18:35.911Z,3.40
2023-02-21T00:29:00.028Z,2.50
2023-02-21T00:39:25.221Z,2.60
2023-02-21T00:49:50.626Z,2.80
2023-02-21T01:00:15.497Z,2.90
2023-02-21T01:10:40.763Z,2.00
2023-02-21T01:21:03.074Z,2.60
2023-02-21T01:31:28.178Z,2.50
2023-02-21T01:41:52.828Z,1.90
2023-02-21T01:52:19.999Z,2.40
2023-02-21T02:02:47.625Z,1.70
2023-02-21T02:13:06.586Z,2.20
2023-02-21T02:23:33.893Z,1.40
2023-02-21T02:34:14.368Z,1.90
2023-02-21T02:44:26.969Z,2.10
2023-02-21T02:54:34.346Z,2.10
2023-02-21T03:04:50.927Z,1.70
2023-02-21T03:15:00.292Z,2.90
2023-02-21T03:25:08.100Z,2.90
2023-02-21T03:35:15.691Z,3.00
2023-02-21T03:45:23.369Z,2.50
2023-02-21T03:55:30.518Z,3.80
2023-02-21T04:05:37.559Z,3.10
2023-02-21T04:15:44.613Z,2.60
2023-02-21T04:25:51.760Z,2.40
2023-02-21T04:35:56.620Z,2.30
2023-02-21T04:46:03.973Z,2.20
2023-02-21T04:56:11.127Z,1.80
2023-02-21T05:06:18.706Z,1.30
2023-02-21T05:16:25.969Z,1.70
2023-02-21T05:26:37.489Z,1.70
2023-02-21T05:36:44.657Z,1.90
2023-02-21T05:46:52.832Z,1.90
2023-02-21T05:56:59.132Z,1.90
2023-02-21T06:07:06.254Z,1.60
2023-02-21T06:17:13.710Z,2.30
2023-02-21T06:27:21.021Z,1.80
2023-02-21T06:37:28.860Z,5.30
2023-02-21T06:47:36.552Z,6.20
2023-02-21T06:57:43.881Z,9.60
2023-02-21T07:07:51.111Z,4.50
2023-02-21T07:17:58.798Z,3.80
2023-02-21T07:28:04.208Z,3.90
2023-02-21T07:38:11.440Z,4.20
2023-02-21T07:48:18.696Z,14.30
2023-02-21T07:58:25.888Z,11.20
2023-02-21T08:08:33.052Z,5.20
2023-02-21T08:18:40.038Z,3.90
2023-02-21T08:28:46.273Z,2.30
2023-02-21T08:38:54.023Z,5.80
2023-02-21T08:49:01.537Z,6.20
2023-02-21T08:59:09.719Z,8.50
2023-02-21T09:19:23.303Z,2.20
2023-02-21T09:29:43.784Z,2.30
2023-02-21T09:39:52.959Z,3.10
2023-02-21T09:49:59.542Z,4.20
2023-02-21T10:00:17.179Z,4.60
2023-02-21T10:10:26.161Z,3.40
2023-02-21T10:20:31.043Z,3.60
2023-02-21T10:30:40.568Z,3.10
2023-02-21T10:40:48.216Z,3.70
2023-02-21T10:51:11.601Z,4.70
2023-02-21T11:01:23.141Z,5.30
2023-02-21T11:11:33.463Z,1.60
2023-02-21T11:21:45.878Z,2.50
2023-02-21T11:31:54.155Z,1.90
2023-02-21T11:42:03.332Z,3.00
2023-02-21T11:52:15.733Z,2.00
2023-02-21T12:02:43.878Z,1.60
2023-02-21T12:12:54.606Z,1.90
2023-02-21T12:23:02.947Z,2.20
2023-02-21T12:33:11.957Z,6.40
2023-02-21T12:43:36.992Z,2.50
2023-02-21T12:53:42.228Z,3.40
2023-02-21T13:03:50.602Z,2.80
2023-02-21T13:13:59.585Z,2.90
2023-02-21T13:24:41.659Z,3.60
2023-02-21T13:34:55.543Z,3.10
2023-02-21T13:45:11.255Z,2.50
2023-02-21T13:55:36.429Z,6.00
2023-02-21T14:06:14.353Z,5.40
2023-02-21T14:16:27.929Z,2.90
2023-02-21T14:26:42.986Z,4.00
2023-02-21T14:36:53.970Z,5.90
2023-02-21T14:47:29.085Z,6.50
2023-02-21T14:57:59.266Z,3.40
2023-02-21T15:08:03.080Z,3.40
2023-02-21T15:18:13.662Z,4.90
2023-02-21T15:28:21.837Z,7.00
2023-02-21T15:38:29.293Z,6.30
2023-02-21T15:48:35.679Z,7.40
2023-02-21T15:58:43.888Z,10.10
2023-02-21T16:08:56.317Z,11.00
2023-02-21T16:19:04.100Z,6.20
2023-02-21T16:29:12.132Z,6.10
2023-02-21T16:39:19.465Z,6.70
2023-02-21T16:49:26.955Z,7.50
2023-02-21T16:59:34.706Z,7.20
2023-02-21T17:09:42.098Z,6.50
2023-02-21T17:19:47.997Z,6.70
2023-02-21T17:29:55.460Z,5.80
2023-02-21T17:40:03.163Z,6.50
2023-02-21T17:50:10.069Z,6.30
2023-02-21T18:00:24.917Z,11.10
2023-02-21T18:10:32.718Z,6.30
2023-02-21T18:20:40.038Z,6.80
2023-02-21T18:30:47.731Z,11.60
2023-02-21T18:41:00.578Z,11.40
2023-02-21T18:51:05.890Z,9.10
2023-02-21T19:01:15.248Z,8.30
2023-02-21T19:21:29.490Z,8.90
2023-02-21T19:31:37.057Z,11.20
2023-02-21T19:41:44.462Z,10.50
2023-02-21T19:51:54.609Z,14.00
2023-02-21T20:02:04.201Z,11.30
2023-02-21T20:12:11.669Z,12.40
2023-02-21T20:22:17.777Z,15.10
2023-02-21T20:32:25.204Z,17.30
2023-02-21T20:42:32.798Z,17.80
2023-02-21T20:52:41.297Z,13.10
2023-02-21T21:02:49.564Z,11.70
2023-02-21T21:12:57.655Z,10.40
2023-02-21T21:23:04.876Z,13.10
2023-02-21T21:33:12.024Z,9.00
2023-02-21T21:43:18.320Z,9.50
2023-02-21T21:53:25.521Z,8.30
2023-02-21T22:03:34.865Z,8.20
2023-02-21T22:23:48.998Z,16.40
2023-02-21T22:33:56.624Z,14.10
2023-02-21T22:44:04.315Z,14.20
2023-02-21T22:54:14.970Z,13.20
2023-02-21T23:04:26.235Z,12.20
2023-02-21T23:14:33.273Z,14.60
2023-02-21T23:24:40.651Z,12.10
2023-02-21T23:34:50.921Z,12.30
2023-02-21T23:44:58.726Z,10.40
2023-02-21T23:55:06.593Z,8.60
